Decoded Metar for KUNO (WEST PLAINS in MO, USA) (IATA:UNO) | Meteo·Mobile Aviation Weather
aviador You're here:

KUNO Decoded Metar

WEST PLAINS in MO, USA
Report Time2018-09-19 13:53:00
UTC Time2018-09-19 14:31:39
Flight Rules vfr VFR
Wind230° at 04 kt
W.Decomp.*RWY 18: 2.7 kt HW 3.0 kt RCW
W.Rank230° ranks 13
Current wind is below 230° avg. (6.3)
Visibility9999 m
Phenomena:N/A
Clouds:N/A
Expected CloudBase > 2,000 ft AGL from Temp-Dew spread
CeilingNone
Temp27°C (ISA +14)
Dew Point22°C (74% RH)
Heat Index29.2°C
QNH1017 hPa
Density Alt3,100 ft
Elevation1,220 ft
Report Wrong Elevation
Raw Report
KUNO 191353Z AUTO 23004KT 10SM CLR 27/22 A3004 RMK AO2 SLP156
T02670217=

Extra information for KUNO:More info

Metar Taf Metar & Taf Last 4 Metars F.Rules Stats Wind Profile Meteogram Temp Stats Airport Information Weather charts Add Link Nearby VenuesMetar ALERT Operation Metar Decoded Social comments

AIRNAV info for KUNO